Time;durP1;ratioP1;P1;durP2;ratioP2;P2;SDS_P1;SDS_P2;PMS_P1;PMS_P2;Temp;Humidity;BMP_temperature;BMP_pressure;BME280_temperature;BME280_humidity;BME280_pressure;Samples;Min_cycle;Max_cycle;Signal;HPM_P1;HPM_P2
2023/10/26 00:00:23;;;;;;;0.13;0.13;;;;;;;20.06;52.45;99758.66;5090164;28;20104;-68
2023/10/26 00:02:48;;;;;;;0.00;0.00;;;;;;;20.22;51.75;99758.47;5076859;28;20534;-68
2023/10/26 00:05:14;;;;;;;0.77;0.10;;;;;;;19.80;52.60;99763.88;5072483;28;20106;-68
2023/10/26 00:07:40;;;;;;;1.60;1.48;;;;;;;20.00;51.75;99759.06;5072092;28;20030;-68
2023/10/26 00:10:06;;;;;;;0.00;0.00;;;;;;;19.55;53.14;99761.06;5104627;28;20032;-68
2023/10/26 00:12:32;;;;;;;3.70;2.73;;;;;;;19.43;53.02;99760.09;5111850;28;20145;-68
2023/10/26 00:14:58;;;;;;;0.63;0.30;;;;;;;19.15;53.99;99770.63;5090115;28;20469;-68
2023/10/26 00:17:24;;;;;;;0.37;0.37;;;;;;;19.07;53.20;99772.91;5093623;28;20023;-68
2023/10/26 00:19:49;;;;;;;0.30;0.30;;;;;;;19.03;53.45;99768.75;5098071;28;20036;-68
2023/10/26 00:22:15;;;;;;;1.00;0.93;;;;;;;19.44;52.77;99773.22;5092075;28;20034;-68
2023/10/26 00:24:41;;;;;;;0.47;0.33;;;;;;;19.64;52.35;99781.69;5111543;28;20024;-68
2023/10/26 00:27:06;;;;;;;0.40;0.40;;;;;;;19.23;53.90;99787.81;5077812;28;20032;-68
2023/10/26 00:29:31;;;;;;;0.00;0.00;;;;;;;19.14;54.17;99787.47;5079656;28;20023;-68
2023/10/26 00:31:57;;;;;;;1.00;0.60;;;;;;;19.66;52.68;99787.75;5082729;28;21546;-68
2023/10/26 00:34:22;;;;;;;0.50;0.47;;;;;;;19.46;53.43;99791.69;5111636;28;20030;-68
2023/10/26 00:36:48;;;;;;;0.40;0.40;;;;;;;19.95;51.89;99791.19;5110683;28;20051;-68
2023/10/26 00:39:13;;;;;;;0.00;0.00;;;;;;;19.69;52.76;99792.00;5092878;28;20024;-68
2023/10/26 00:41:38;;;;;;;0.00;0.00;;;;;;;19.73;52.08;99778.47;5092257;28;20057;-68
2023/10/26 00:44:04;;;;;;;0.00;0.00;;;;;;;19.25;53.35;99778.00;5091452;28;20468;-68
2023/10/26 00:46:30;;;;;;;0.00;0.00;;;;;;;19.37;52.99;99781.66;5091177;28;20495;-68
2023/10/26 00:48:56;;;;;;;3.93;2.93;;;;;;;19.37;52.44;99786.97;5091077;28;20495;-68
2023/10/26 00:51:23;;;;;;;14.87;8.43;;;;;;;19.67;51.86;99794.75;5092970;28;20463;-68
2023/10/26 00:53:49;;;;;;;13.87;7.33;;;;;;;20.00;51.55;99790.88;5113528;28;20463;-68
2023/10/26 00:56:19;;;;;;;13.77;7.97;;;;;;;19.12;53.44;99784.06;5096206;28;20012;-68
2023/10/26 00:58:44;;;;;;;15.17;8.37;;;;;;;19.27;53.11;99797.28;5097260;28;20019;-68
2023/10/26 01:01:11;;;;;;;15.20;8.23;;;;;;;19.17;52.83;99785.59;5090575;28;20081;-68
2023/10/26 01:03:37;;;;;;;13.43;7.70;;;;;;;19.14;52.71;99787.47;5093826;28;20115;-68
2023/10/26 01:06:03;;;;;;;17.53;8.40;;;;;;;18.87;53.09;99794.44;5076403;28;20065;-68
2023/10/26 01:08:28;;;;;;;11.70;7.03;;;;;;;19.12;52.79;99788.50;5094833;28;20046;-68
2023/10/26 01:10:54;;;;;;;17.00;8.27;;;;;;;18.96;52.34;99784.16;5080869;28;20028;-68
2023/10/26 01:13:19;;;;;;;16.50;8.40;;;;;;;18.66;52.79;99786.84;5095746;28;20028;-68
2023/10/26 01:15:45;;;;;;;13.23;7.77;;;;;;;18.55;53.71;99786.66;5094477;28;20552;-68
2023/10/26 01:18:10;;;;;;;12.07;6.93;;;;;;;18.57;53.47;99787.41;5074813;28;20024;-68
2023/10/26 01:20:40;;;;;;;12.13;7.17;;;;;;;18.50;53.33;99791.34;5076478;28;20032;-68
2023/10/26 01:23:06;;;;;;;13.40;7.07;;;;;;;18.73;52.65;99785.53;5075369;28;20053;-68
2023/10/26 01:25:31;;;;;;;12.70;7.37;;;;;;;18.53;53.39;99792.00;5093842;28;20049;-68
2023/10/26 01:27:57;;;;;;;12.57;7.67;;;;;;;18.22;54.20;99791.19;5075578;28;20020;-68
2023/10/26 01:30:22;;;;;;;12.77;7.97;;;;;;;18.21;54.03;99789.47;5076466;28;20388;-68
2023/10/26 01:32:48;;;;;;;14.67;6.93;;;;;;;18.18;53.90;99791.47;5094352;28;20073;-69
2023/10/26 01:35:13;;;;;;;13.23;7.07;;;;;;;18.22;53.84;99793.00;5114277;28;20518;-68
2023/10/26 01:37:39;;;;;;;14.97;7.73;;;;;;;18.20;53.94;99792.22;5114842;28;20399;-68
2023/10/26 01:40:09;;;;;;;13.83;7.83;;;;;;;18.09;54.20;99788.41;5074945;28;20028;-68
2023/10/26 01:42:34;;;;;;;13.83;7.70;;;;;;;18.22;53.14;99782.41;5100012;28;20035;-69
2023/10/26 01:45:00;;;;;;;14.70;8.47;;;;;;;18.38;52.70;99780.56;5095057;28;20050;-68
2023/10/26 01:47:25;;;;;;;16.50;7.97;;;;;;;18.04;53.79;99779.91;5077698;28;20058;-68
2023/10/26 01:49:51;;;;;;;15.73;8.17;;;;;;;17.94;54.66;99784.00;5075184;28;20387;-68
2023/10/26 01:52:16;;;;;;;17.73;8.70;;;;;;;17.75;53.93;99778.88;5073568;28;20406;-68
2023/10/26 01:54:41;;;;;;;16.03;8.47;;;;;;;17.97;53.49;99781.19;5075850;28;20070;-69
2023/10/26 01:57:07;;;;;;;15.50;7.27;;;;;;;18.16;52.64;99782.75;5075085;28;20028;-68
2023/10/26 01:59:32;;;;;;;16.13;8.70;;;;;;;17.84;54.18;99782.78;5074143;28;20026;-68
2023/10/26 02:01:57;;;;;;;17.23;8.87;;;;;;;17.49;54.51;99777.69;5084031;28;20103;-68
2023/10/26 02:04:23;;;;;;;19.27;9.07;;;;;;;17.38;55.26;99781.78;5113228;28;20055;-68
2023/10/26 02:06:48;;;;;;;16.37;8.13;;;;;;;17.62;54.72;99782.19;5106392;28;20024;-68
2023/10/26 02:09:14;;;;;;;14.57;7.70;;;;;;;17.84;53.48;99785.44;5076340;28;20032;-68
2023/10/26 02:11:39;;;;;;;14.90;7.87;;;;;;;17.04;55.37;99788.91;5093808;28;20381;-68
2023/10/26 02:14:05;;;;;;;15.13;7.90;;;;;;;17.62;54.62;99781.34;5074420;28;20057;-68
2023/10/26 02:16:30;;;;;;;15.87;8.37;;;;;;;17.54;54.38;99784.41;5094052;28;20024;-68
2023/10/26 02:18:55;;;;;;;12.83;7.53;;;;;;;17.30;55.11;99781.34;5092692;28;20032;-68
2023/10/26 02:21:21;;;;;;;16.20;7.90;;;;;;;17.75;53.96;99773.56;5092173;28;20024;-69
2023/10/26 02:23:46;;;;;;;14.47;8.33;;;;;;;17.46;54.95;99761.09;5074248;28;20028;-68
2023/10/26 02:26:11;;;;;;;16.30;8.53;;;;;;;17.43;55.00;99758.63;5074395;28;20617;-69
2023/10/26 02:28:37;;;;;;;15.73;7.33;;;;;;;17.42;54.93;99756.91;5075275;28;20490;-68
2023/10/26 02:31:02;;;;;;;16.17;9.00;;;;;;;17.64;54.45;99761.00;5080531;28;20580;-68
2023/10/26 02:33:28;;;;;;;13.80;7.60;;;;;;;18.05;52.77;99760.44;5113586;28;20027;-68
2023/10/26 02:35:53;;;;;;;20.20;8.47;;;;;;;17.34;54.92;99763.53;5094014;28;20032;-69
2023/10/26 02:38:18;;;;;;;15.33;7.63;;;;;;;17.44;54.74;99755.03;5099324;28;20031;-69
2023/10/26 02:40:44;;;;;;;14.63;7.20;;;;;;;17.48;54.56;99760.16;5113318;28;20144;-69
2023/10/26 02:43:09;;;;;;;17.93;8.70;;;;;;;17.42;54.79;99756.91;5093757;28;20410;-68
2023/10/26 02:45:35;;;;;;;16.40;7.83;;;;;;;17.50;53.70;99758.25;5088824;28;20020;-68
2023/10/26 02:48:02;;;;;;;15.27;8.70;;;;;;;17.43;54.28;99766.53;5094504;28;20027;-68
2023/10/26 02:50:28;;;;;;;15.83;7.40;;;;;;;17.39;54.47;99762.38;5094520;28;20539;-69
2023/10/26 02:52:53;;;;;;;17.10;7.37;;;;;;;17.74;53.43;99771.91;5092778;28;20027;-68
2023/10/26 02:55:19;;;;;;;17.53;8.23;;;;;;;17.22;54.23;99765.91;5077243;28;20056;-69
2023/10/26 02:57:44;;;;;;;14.87;8.47;;;;;;;17.70;53.24;99759.81;5092250;28;20031;-69
2023/10/26 03:00:12;;;;;;;18.43;9.10;;;;;;;17.07;53.30;99764.97;5099841;28;20157;-69
2023/10/26 03:02:37;;;;;;;15.37;7.77;;;;;;;16.54;55.85;99764.22;5084337;28;20027;-68
2023/10/26 03:05:02;;;;;;;14.93;6.67;;;;;;;16.30;56.90;99776.84;5090569;28;20387;-68
2023/10/26 03:07:28;;;;;;;13.97;6.77;;;;;;;16.98;54.66;99768.13;5078324;28;20023;-69
2023/10/26 03:09:54;;;;;;;8.97;5.17;;;;;;;15.73;58.38;99782.25;5108832;28;20057;-68
2023/10/26 03:12:20;;;;;;;7.33;4.10;;;;;;;15.86;58.16;99777.28;5094555;28;20108;-68
2023/10/26 03:14:45;;;;;;;7.60;4.10;;;;;;;16.79;56.23;99769.06;5088217;28;20501;-68
2023/10/26 03:17:15;;;;;;;12.97;3.90;;;;;;;17.24;54.61;99763.19;5091914;28;20512;-69
2023/10/26 03:19:44;;;;;;;5.87;3.83;;;;;;;17.53;54.78;99761.59;5094393;28;20027;-69
2023/10/26 03:22:10;;;;;;;6.77;3.87;;;;;;;17.35;55.57;99760.84;5094045;28;20015;-69
2023/10/26 03:24:36;;;;;;;12.87;4.33;;;;;;;17.55;55.15;99764.16;5092642;28;20107;-69
2023/10/26 03:27:01;;;;;;;10.63;4.73;;;;;;;17.60;55.11;99759.47;5090612;28;20062;-69
2023/10/26 03:29:26;;;;;;;12.63;4.50;;;;;;;17.55;55.13;99750.94;5109807;28;20024;-69
2023/10/26 03:31:52;;;;;;;7.30;3.90;;;;;;;17.61;55.15;99750.59;5074945;28;20063;-69
2023/10/26 03:34:17;;;;;;;9.73;5.20;;;;;;;17.45;55.23;99751.44;5073172;28;20040;-69
2023/10/26 03:36:42;;;;;;;10.77;5.57;;;;;;;17.78;54.79;99753.13;5073875;28;20032;-69
2023/10/26 03:39:08;;;;;;;12.67;6.03;;;;;;;17.66;54.85;99753.81;5072485;28;20026;-68
2023/10/26 03:41:33;;;;;;;9.83;5.90;;;;;;;18.02;53.83;99750.03;5073761;28;20122;-69
2023/10/26 03:43:59;;;;;;;12.63;6.47;;;;;;;17.60;53.76;99740.97;5072770;28;20070;-68
2023/10/26 03:46:24;;;;;;;12.77;5.97;;;;;;;17.19;56.32;99739.69;5091144;28;20383;-68
2023/10/26 03:48:50;;;;;;;16.03;5.67;;;;;;;17.56;55.27;99737.66;5072636;28;20031;-69
2023/10/26 03:51:16;;;;;;;9.40;6.00;;;;;;;17.49;55.41;99740.72;5107060;28;20106;-69
2023/10/26 03:53:41;;;;;;;9.33;5.60;;;;;;;17.49;55.62;99743.34;5091972;28;20031;-69
2023/10/26 03:56:06;;;;;;;11.80;6.17;;;;;;;17.66;54.82;99753.81;5090627;28;20391;-68
2023/10/26 03:58:32;;;;;;;10.57;5.60;;;;;;;17.45;54.50;99751.44;5093881;28;20051;-69
2023/10/26 04:00:57;;;;;;;8.80;4.97;;;;;;;17.61;54.67;99755.88;5074223;28;20016;-69
2023/10/26 04:03:23;;;;;;;10.80;6.23;;;;;;;17.75;54.15;99753.31;5074164;28;20017;-68
2023/10/26 04:05:48;;;;;;;11.00;6.17;;;;;;;17.95;53.65;99744.25;5085870;28;20036;-69
2023/10/26 04:08:14;;;;;;;9.73;5.80;;;;;;;17.85;53.53;99736.94;5093378;28;20027;-69
2023/10/26 04:10:41;;;;;;;14.83;6.57;;;;;;;17.83;53.12;99733.50;5076621;28;20585;-69
2023/10/26 04:13:07;;;;;;;11.07;6.43;;;;;;;17.72;53.86;99735.00;5072047;28;20097;-70
2023/10/26 04:15:32;;;;;;;15.83;6.33;;;;;;;18.09;52.83;99727.59;5090218;28;20502;-69
2023/10/26 04:17:59;;;;;;;11.60;6.43;;;;;;;17.61;54.36;99718.88;5081322;28;20367;-68
2023/10/26 04:20:24;;;;;;;15.27;6.07;;;;;;;18.13;53.34;99715.03;5081343;28;20521;-69
2023/10/26 04:22:50;;;;;;;11.93;6.47;;;;;;;17.95;52.82;99717.81;5111030;28;20023;-69
2023/10/26 04:25:15;;;;;;;20.10;5.63;;;;;;;18.10;51.94;99726.63;5092984;28;20019;-69
2023/10/26 04:27:41;;;;;;;10.97;5.50;;;;;;;17.99;53.10;99717.66;5088991;28;20015;-68
2023/10/26 04:30:07;;;;;;;8.90;5.90;;;;;;;17.74;53.54;99730.47;5089636;28;20035;-69
2023/10/26 04:32:32;;;;;;;9.77;6.30;;;;;;;17.58;54.52;99730.47;5072890;28;20020;-69
2023/10/26 04:34:58;;;;;;;15.83;7.00;;;;;;;17.55;54.48;99719.25;5071967;28;20479;-68
2023/10/26 04:37:23;;;;;;;14.27;6.13;;;;;;;17.91;53.60;99715.41;5102128;28;20027;-68
2023/10/26 04:39:49;;;;;;;14.97;7.07;;;;;;;17.53;54.05;99723.75;5090984;28;20024;-68
2023/10/26 04:42:14;;;;;;;11.47;6.80;;;;;;;16.91;56.52;99725.38;5072937;28;20098;-69
2023/10/26 04:44:40;;;;;;;19.33;6.47;;;;;;;17.55;53.88;99719.25;5072857;28;20036;-68
2023/10/26 04:47:05;;;;;;;13.27;6.40;;;;;;;17.12;54.25;99712.78;5071630;28;20046;-69
2023/10/26 04:49:33;;;;;;;11.17;5.97;;;;;;;17.54;53.61;99722.81;5071502;28;20031;-69
2023/10/26 04:51:59;;;;;;;13.03;6.03;;;;;;;17.84;52.46;99720.19;5078003;28;20023;-68
2023/10/26 04:54:24;;;;;;;13.03;6.57;;;;;;;17.32;54.38;99726.66;5093075;28;20023;-68
2023/10/26 04:56:49;;;;;;;9.43;5.43;;;;;;;17.26;53.71;99713.81;5092521;28;20051;-69
2023/10/26 04:59:15;;;;;;;11.80;6.13;;;;;;;17.05;54.65;99705.25;5092736;28;20020;-68
2023/10/26 05:01:40;;;;;;;16.63;5.10;;;;;;;16.77;54.90;99712.88;5109342;28;20068;-69
2023/10/26 05:04:06;;;;;;;9.97;4.53;;;;;;;16.29;55.22;99719.78;5089973;28;20050;-69
2023/10/26 05:06:33;;;;;;;8.40;4.30;;;;;;;16.53;55.87;99724.72;5090391;28;20031;-69
2023/10/26 05:08:58;;;;;;;5.93;4.07;;;;;;;17.16;53.91;99724.03;5089227;28;20028;-68
2023/10/26 05:11:23;;;;;;;5.73;4.13;;;;;;;16.80;54.38;99722.41;5092617;28;20026;-69
2023/10/26 05:13:52;;;;;;;5.30;3.57;;;;;;;16.35;55.52;99724.75;5093085;28;20036;-68
2023/10/26 05:16:17;;;;;;;6.53;4.07;;;;;;;16.51;54.29;99716.88;5084504;28;20082;-68
2023/10/26 05:18:43;;;;;;;8.50;3.87;;;;;;;17.09;53.79;99720.00;5080950;28;20023;-68
2023/10/26 05:21:08;;;;;;;5.80;3.53;;;;;;;16.13;55.75;99732.03;5091073;28;20130;-68
2023/10/26 05:23:33;;;;;;;9.73;4.23;;;;;;;16.73;54.67;99721.91;5072027;28;20097;-69
2023/10/26 05:25:59;;;;;;;5.73;4.10;;;;;;;17.08;54.30;99716.50;5089167;28;20138;-68
2023/10/26 05:28:24;;;;;;;12.63;4.60;;;;;;;17.00;54.06;99713.44;5092847;28;20450;-69
2023/10/26 05:30:50;;;;;;;6.57;4.37;;;;;;;17.17;54.53;99716.94;5089995;28;20032;-68
2023/10/26 05:33:15;;;;;;;9.73;5.00;;;;;;;17.12;54.35;99707.50;5074306;28;20019;-69
2023/10/26 05:35:40;;;;;;;13.53;4.30;;;;;;;17.55;53.70;99703.38;5086046;28;20058;-68
2023/10/26 05:38:06;;;;;;;8.37;4.77;;;;;;;17.58;52.97;99703.22;5096622;28;20032;-68
2023/10/26 05:40:32;;;;;;;14.17;6.63;;;;;;;17.63;53.68;99695.88;5074927;28;20024;-69
2023/10/26 05:42:57;;;;;;;14.20;6.10;;;;;;;17.46;53.12;99704.75;5074319;28;20082;-69
2023/10/26 05:45:22;;;;;;;16.40;5.80;;;;;;;17.58;53.63;99703.22;5085137;28;20036;-69
2023/10/26 05:47:54;;;;;;;23.73;6.07;;;;;;;16.48;56.15;99700.38;5090090;28;20070;-68
2023/10/26 05:50:20;;;;;;;19.20;6.87;;;;;;;17.01;56.08;99694.03;5096556;28;20032;-69
2023/10/26 05:52:46;;;;;;;24.30;6.37;;;;;;;16.86;56.86;99697.50;5077535;28;20383;-68
2023/10/26 05:55:11;;;;;;;22.27;6.87;;;;;;;16.57;58.49;99698.09;5104323;28;20113;-68
2023/10/26 05:57:36;;;;;;;18.53;7.43;;;;;;;17.49;55.72;99699.31;5096064;28;20026;-68
2023/10/26 06:00:09;;;;;;;19.83;6.30;;;;;;;17.24;55.67;99691.91;5074285;28;20395;-68
2023/10/26 06:02:34;;;;;;;13.10;6.38;;;;;;;16.78;57.56;99690.81;5075627;28;20024;-69
2023/10/26 06:05:00;;;;;;;18.73;6.87;;;;;;;17.07;57.15;99688.41;5073280;28;20030;-69
2023/10/26 06:07:25;;;;;;;30.27;7.23;;;;;;;17.55;55.82;99685.72;5081325;28;20033;-69
2023/10/26 06:09:51;;;;;;;17.67;6.93;;;;;;;17.10;57.07;99692.66;5093838;28;20420;-69
2023/10/26 06:12:17;;;;;;;21.13;6.97;;;;;;;17.37;55.96;99690.28;5088196;28;20031;-68
2023/10/26 06:14:42;;;;;;;26.77;6.50;;;;;;;17.30;57.10;99689.78;5093886;28;20024;-68
2023/10/26 06:17:07;;;;;;;30.57;7.30;;;;;;;17.09;57.82;99686.56;5083610;28;20051;-68
2023/10/26 06:19:34;;;;;;;27.23;7.97;;;;;;;17.42;56.88;99693.53;5105066;28;20386;-69
2023/10/26 06:21:59;;;;;;;36.60;8.87;;;;;;;17.15;58.92;99687.16;5078767;28;20439;-68
2023/10/26 06:24:25;;;;;;;33.70;8.07;;;;;;;17.75;56.80;99684.59;5092991;28;20107;-68
2023/10/26 06:26:50;;;;;;;17.90;7.90;;;;;;;18.08;55.58;99693.28;5074410;28;20479;-69
2023/10/26 06:29:15;;;;;;;35.67;7.67;;;;;;;17.91;56.18;99688.97;5074708;28;20221;-68
2023/10/26 06:31:41;;;;;;;32.10;8.97;;;;;;;17.26;57.95;99696.16;5093275;28;20028;-69
2023/10/26 06:34:06;;;;;;;33.40;8.73;;;;;;;18.19;55.50;99690.88;5081382;28;20030;-69
2023/10/26 06:36:32;;;;;;;28.20;7.77;;;;;;;18.07;56.22;99687.16;5089688;28;20031;-69
2023/10/26 06:38:59;;;;;;;27.60;8.97;;;;;;;17.52;57.96;99693.00;5094477;28;20412;-69
2023/10/26 06:41:24;;;;;;;26.60;8.03;;;;;;;17.70;57.91;99697.22;5081576;28;20035;-69
2023/10/26 06:43:51;;;;;;;27.27;8.43;;;;;;;17.69;57.87;99702.59;5079977;28;20028;-69
2023/10/26 06:46:16;;;;;;;43.30;10.07;;;;;;;17.26;58.94;99697.97;5110368;28;20028;-69
2023/10/26 06:48:42;;;;;;;36.63;9.00;;;;;;;17.60;58.44;99702.19;5094292;28;20016;-69
2023/10/26 06:51:07;;;;;;;32.03;8.37;;;;;;;17.76;57.92;99707.44;5093345;28;20144;-69
2023/10/26 06:53:33;;;;;;;24.70;8.20;;;;;;;18.21;56.37;99702.19;5093202;28;20019;-69
2023/10/26 06:55:58;;;;;;;33.80;8.07;;;;;;;17.33;58.58;99698.47;5093432;28;20051;-69
2023/10/26 06:58:23;;;;;;;39.23;8.30;;;;;;;17.38;59.33;99691.13;5094809;28;20083;-69
2023/10/26 07:00:49;;;;;;;31.23;7.73;;;;;;;17.43;58.73;99695.22;5111807;28;20031;-69
2023/10/26 07:03:14;;;;;;;29.53;8.07;;;;;;;17.94;57.09;99694.13;5093523;28;20024;-69
2023/10/26 07:05:40;;;;;;;25.83;7.30;;;;;;;18.23;56.46;99700.34;5112988;28;20027;-69
2023/10/26 07:08:06;;;;;;;24.33;7.63;;;;;;;17.57;58.41;99704.13;5093913;28;20023;-69
2023/10/26 07:10:31;;;;;;;28.20;9.53;;;;;;;17.99;57.08;99697.34;5090116;28;20677;-69
2023/10/26 07:12:57;;;;;;;24.03;8.80;;;;;;;18.43;55.67;99696.47;5093696;28;20027;-69
2023/10/26 07:15:22;;;;;;;29.30;9.03;;;;;;;18.29;55.77;99710.53;5093769;28;20023;-69
2023/10/26 07:17:47;;;;;;;27.30;8.87;;;;;;;18.29;55.61;99707.88;5093281;28;20088;-69
2023/10/26 07:20:13;;;;;;;27.17;10.00;;;;;;;18.29;56.37;99709.69;5107823;28;20046;-69
2023/10/26 07:22:39;;;;;;;27.37;8.40;;;;;;;18.21;55.64;99711.94;5105919;28;20084;-69
2023/10/26 07:25:06;;;;;;;30.47;9.03;;;;;;;18.11;57.00;99716.94;5112340;28;20031;-69
2023/10/26 07:27:31;;;;;;;21.03;8.00;;;;;;;17.74;58.16;99706.66;5099754;28;20024;-69
2023/10/26 07:29:59;;;;;;;22.10;7.33;;;;;;;18.22;56.77;99713.66;5072717;28;20065;-69
2023/10/26 07:32:24;;;;;;;24.83;7.80;;;;;;;17.51;58.27;99712.44;5091898;28;20039;-69
2023/10/26 07:34:51;;;;;;;25.23;8.13;;;;;;;18.06;57.14;99714.53;5092126;28;20020;-69
2023/10/26 07:37:16;;;;;;;28.67;8.57;;;;;;;18.39;56.13;99716.13;5097994;28;20209;-69
2023/10/26 07:39:42;;;;;;;23.80;8.03;;;;;;;18.17;56.40;99705.13;5093079;28;20026;-69
2023/10/26 07:42:07;;;;;;;19.73;7.20;;;;;;;17.63;58.66;99701.16;5095008;28;20074;-69
2023/10/26 07:44:33;;;;;;;25.20;7.93;;;;;;;17.87;57.29;99703.31;5072728;28;20028;-69
2023/10/26 07:46:59;;;;;;;20.20;7.40;;;;;;;18.35;56.86;99703.19;5093663;28;20098;-69
2023/10/26 07:49:24;;;;;;;24.83;7.67;;;;;;;18.43;56.82;99695.63;5091076;28;20106;-69
2023/10/26 07:51:50;;;;;;;22.83;6.63;;;;;;;17.86;58.12;99705.13;5083824;28;20055;-69
2023/10/26 07:54:17;;;;;;;19.87;7.37;;;;;;;17.61;59.72;99705.66;5074244;28;20444;-68
2023/10/26 07:56:43;;;;;;;20.90;7.93;;;;;;;17.63;58.80;99711.72;5095493;28;20062;-69
2023/10/26 07:59:08;;;;;;;21.50;7.63;;;;;;;17.90;58.07;99711.94;5072065;28;20048;-68
2023/10/26 08:01:33;;;;;;;19.87;7.83;;;;;;;18.13;57.94;99710.63;5073145;28;20115;-69
2023/10/26 08:03:58;;;;;;;25.93;8.47;;;;;;;18.09;58.00;99713.50;5072925;28;20056;-69
2023/10/26 08:06:24;;;;;;;24.30;8.53;;;;;;;17.89;57.56;99712.88;5100835;28;20059;-69
2023/10/26 08:08:52;;;;;;;28.50;9.20;;;;;;;18.13;57.85;99715.91;5076527;28;20031;-69
2023/10/26 08:11:17;;;;;;;26.30;9.50;;;;;;;17.62;58.61;99710.03;5086217;28;20503;-69
2023/10/26 08:13:44;;;;;;;26.33;9.40;;;;;;;17.75;59.37;99705.75;5108674;28;20080;-69
2023/10/26 08:16:10;;;;;;;29.40;10.07;;;;;;;17.45;59.97;99709.19;5098651;28;20069;-69
2023/10/26 08:18:35;;;;;;;23.73;8.67;;;;;;;18.08;57.89;99712.66;5111672;28;20027;-69
2023/10/26 08:21:03;;;;;;;22.37;8.03;;;;;;;17.85;58.52;99715.78;5109724;28;20066;-69
2023/10/26 08:23:32;;;;;;;28.40;8.97;;;;;;;18.28;57.54;99713.28;5093336;28;20019;-69
2023/10/26 08:26:06;;;;;;;26.30;8.37;;;;;;;17.51;59.11;99707.16;5109137;28;20032;-69
2023/10/26 08:28:31;;;;;;;31.50;8.53;;;;;;;17.68;59.77;99709.69;5073683;28;20081;-69
2023/10/26 08:30:57;;;;;;;27.77;8.73;;;;;;;18.65;56.69;99705.75;5087139;28;20031;-69
2023/10/26 08:33:22;;;;;;;30.03;9.97;;;;;;;19.04;56.49;99701.59;5090614;28;20491;-69
2023/10/26 08:35:49;;;;;;;29.13;9.40;;;;;;;18.57;56.94;99710.66;5072874;28;20023;-69
2023/10/26 08:38:15;;;;;;;36.87;10.33;;;;;;;19.06;55.64;99704.16;5079200;28;20047;-69
2023/10/26 08:40:50;;;;;;;33.60;9.53;;;;;;;19.03;56.05;99704.31;5090469;28;20123;-69
2023/10/26 08:43:17;;;;;;;34.53;11.13;;;;;;;19.02;56.01;99703.47;5110137;28;20097;-69
2023/10/26 08:45:44;;;;;;;41.37;13.17;;;;;;;18.94;55.96;99711.06;5111396;28;20020;-69
2023/10/26 08:48:16;;;;;;;39.17;12.27;;;;;;;19.13;56.62;99706.28;5099289;28;20028;-69
2023/10/26 08:50:42;;;;;;;44.10;13.70;;;;;;;19.02;55.71;99711.44;5072893;28;20024;-69
2023/10/26 08:53:07;;;;;;;47.33;14.53;;;;;;;18.77;56.87;99714.75;5092366;28;20501;-69
2023/10/26 08:55:34;;;;;;;38.23;11.83;;;;;;;18.91;57.26;99713.91;5090192;28;20023;-69
2023/10/26 08:58:02;;;;;;;43.00;13.50;;;;;;;18.36;59.29;99718.94;5081423;28;20024;-69
2023/10/26 09:00:30;;;;;;;39.47;12.50;;;;;;;18.17;58.94;99726.28;5088604;28;20069;-69
2023/10/26 09:02:56;;;;;;;36.63;13.07;;;;;;;18.86;57.42;99718.59;5071494;28;20042;-69
2023/10/26 09:05:22;;;;;;;32.67;12.20;;;;;;;18.55;58.13;99708.09;5072869;28;20578;-69
2023/10/26 09:07:47;;;;;;;33.77;11.23;;;;;;;17.80;60.79;99714.25;5072736;28;20095;-69
2023/10/26 09:10:27;;;;;;;37.63;11.77;;;;;;;18.60;58.94;99702.53;5073954;28;20027;-68
2023/10/26 09:12:58;;;;;;;38.80;13.03;;;;;;;18.78;58.91;99700.53;5072626;28;20029;-69
2023/10/26 09:15:23;;;;;;;33.50;12.50;;;;;;;18.66;58.69;99702.16;5075366;28;20051;-69
2023/10/26 09:17:49;;;;;;;34.27;12.17;;;;;;;19.20;57.45;99697.97;5076480;28;20052;-69
2023/10/26 09:20:21;;;;;;;31.43;11.27;;;;;;;18.99;57.28;99701.03;5093993;28;20032;-69
2023/10/26 09:22:46;;;;;;;32.50;12.10;;;;;;;19.30;56.45;99696.41;5075969;28;20055;-69
2023/10/26 09:25:13;;;;;;;33.08;12.15;;;;;;;19.13;57.26;99685.09;5075803;28;20060;-69
2023/10/26 09:27:40;;;;;;;33.25;12.57;;;;;;;19.32;56.68;99690.06;5096500;28;20495;-69
2023/10/26 09:30:22;;;;;;;37.47;11.57;;;;;;;19.65;55.67;99686.16;5113696;28;20471;-69
2023/10/26 09:32:47;;;;;;;35.25;12.30;;;;;;;19.01;57.63;99683.25;5092823;28;20028;-69
2023/10/26 09:35:25;;;;;;;28.42;11.70;;;;;;;19.92;55.10;99676.50;5097808;28;20068;-69
2023/10/26 09:37:53;;;;;;;37.33;11.85;;;;;;;19.55;55.23;99679.78;5089194;28;20069;-69
2023/10/26 09:40:22;;;;;;;31.95;12.10;;;;;;;19.87;55.03;99678.63;5089185;28;20027;-69
2023/10/26 09:42:49;;;;;;;37.20;13.38;;;;;;;20.05;54.84;99672.06;5076462;28;20480;-69
2023/10/26 09:45:16;;;;;;;28.85;11.77;;;;;;;20.04;54.18;99674.84;5077522;28;20026;-69
2023/10/26 09:47:41;;;;;;;29.20;11.55;;;;;;;19.92;54.68;99671.19;5096159;28;20020;-69
2023/10/26 09:50:08;;;;;;;29.48;11.93;;;;;;;19.86;54.31;99674.28;5085443;28;20042;-69
2023/10/26 09:52:34;;;;;;;30.02;11.88;;;;;;;19.95;54.48;99671.84;5075701;28;20103;-68
2023/10/26 09:55:00;;;;;;;24.33;11.55;;;;;;;19.93;55.29;99664.94;5074521;28;20449;-69
2023/10/26 09:57:30;;;;;;;28.98;10.55;;;;;;;20.93;53.51;99657.19;5090933;28;20485;-69
2023/10/26 09:59:58;;;;;;;27.08;11.23;;;;;;;20.58;53.68;99663.16;5093570;28;20028;-69
2023/10/26 10:02:24;;;;;;;26.48;10.68;;;;;;;20.12;54.52;99668.03;5094015;28;20420;-69
2023/10/26 10:04:49;;;;;;;23.75;10.15;;;;;;;20.39;53.61;99664.47;5074892;28;20066;-69
2023/10/26 10:07:38;;;;;;;24.77;9.43;;;;;;;21.00;52.46;99656.63;5107838;28;20051;-69
2023/10/26 10:10:09;;;;;;;26.42;9.68;;;;;;;20.53;54.21;99660.84;5094998;28;20026;-69
2023/10/26 10:12:35;;;;;;;21.75;10.70;;;;;;;21.01;51.96;99654.81;5098570;28;20024;-69
2023/10/26 10:15:06;;;;;;;22.83;10.68;;;;;;;20.96;52.43;99667.59;5106433;28;20031;-69
2023/10/26 10:17:43;;;;;;;23.45;10.50;;;;;;;19.73;54.18;99671.53;5075461;28;20107;-69
2023/10/26 10:20:15;;;;;;;26.45;10.32;;;;;;;20.88;52.47;99667.28;5092412;28;20020;-69
2023/10/26 10:22:40;;;;;;;22.25;9.63;;;;;;;20.19;54.53;99683.56;5110850;28;20110;-69
2023/10/26 10:25:09;;;;;;;23.85;10.27;;;;;;;20.46;53.06;99678.16;5113344;28;20107;-69
2023/10/26 10:27:36;;;;;;;20.38;9.43;;;;;;;20.05;54.04;99677.38;5093057;28;20030;-69
2023/10/26 10:30:08;;;;;;;23.23;10.07;;;;;;;20.80;52.51;99674.00;5094259;28;20482;-69
2023/10/26 10:32:43;;;;;;;19.98;9.73;;;;;;;21.12;51.83;99672.66;5094508;28;20104;-69
2023/10/26 10:35:14;;;;;;;21.23;9.95;;;;;;;20.20;53.15;99670.19;5094920;28;20023;-69
2023/10/26 10:38:15;;;;;;;21.20;9.60;;;;;;;20.36;53.29;99664.69;5091414;28;20036;-69
2023/10/26 10:41:07;;;;;;;21.00;9.30;;;;;;;20.31;54.09;99650.88;5094512;28;20055;-68
2023/10/26 10:43:45;;;;;;;18.42;9.13;;;;;;;20.38;54.20;99644.19;5081791;28;20091;-68
2023/10/26 10:46:15;;;;;;;17.13;9.05;;;;;;;20.20;54.36;99637.50;5073692;28;20028;-68
2023/10/26 10:49:03;;;;;;;17.75;8.23;;;;;;;20.47;53.73;99640.88;5075133;28;20043;-68
2023/10/26 10:51:32;;;;;;;19.65;8.15;;;;;;;20.67;52.97;99630.66;5092365;28;20039;-68
2023/10/26 10:53:58;;;;;;;17.80;8.48;;;;;;;20.20;53.77;99626.91;5093683;28;20114;-68
2023/10/26 10:56:24;;;;;;;16.33;7.68;;;;;;;20.28;53.89;99619.25;5093472;28;20455;-68
2023/10/26 10:58:55;;;;;;;14.80;7.05;;;;;;;20.57;53.35;99619.00;5091226;28;20031;-68
2023/10/26 11:01:21;;;;;;;14.02;7.05;;;;;;;20.87;51.54;99620.44;5093721;28;20379;-68
2023/10/26 11:03:50;;;;;;;14.60;6.65;;;;;;;21.25;51.42;99624.75;5094890;28;20056;-67
2023/10/26 11:06:16;;;;;;;14.80;7.18;;;;;;;21.07;51.55;99627.81;5094207;28;20027;-68
2023/10/26 11:08:42;;;;;;;14.18;6.72;;;;;;;20.17;53.04;99626.16;5089971;28;20327;-68
2023/10/26 11:11:07;;;;;;;14.02;6.30;;;;;;;20.28;53.40;99629.88;5091301;28;20084;-69
2023/10/26 11:13:32;;;;;;;13.50;6.20;;;;;;;20.13;53.55;99632.63;5083481;28;20391;-69
2023/10/26 11:15:58;;;;;;;11.80;5.97;;;;;;;19.60;53.16;99634.41;5077650;28;20044;-69
2023/10/26 11:18:24;;;;;;;12.43;5.40;;;;;;;20.58;51.37;99621.56;5090759;28;20525;-69
2023/10/26 11:20:49;;;;;;;13.13;5.63;;;;;;;20.51;52.36;99630.88;5095133;28;20386;-69